SWR42T LSGG-EDDF
Flight info
| Callsign | SWR42T |
|---|---|
| Flight time | 0h 51m |
| Altitude | 30000 |
| Route | SOSAL N871 KORED DCT BERSU N871 DITON/N0454F310 DCT LADOL/N0454F300 T163 EMPAX EMPAX5C |
| Aircraft | A320/M-SDE3FGHIRWY/LB1 |
Departure
| Time | 2026-05-07 19:43 |
|---|---|
| Airport | Geneva International Airport (LSGG) |
Arrival
| Time | 2026-05-07 20:34 |
|---|---|
| Airport | Frankfurt Main Airport (EDDF) |
| Time | Latitude | Longitude | Altitude | Speed | Heading |
|---|---|---|---|---|---|
| 2026-05-07 19:07 | 46.23151 | 6.10747 | 1393 ft | 0 kts | 135° |
| 2026-05-07 19:32 | 46.23154 | 6.10744 | 1404 ft | 2 kts | 135° |
| 2026-05-07 19:33 | 46.23166 | 6.10726 | 1405 ft | 2 kts | 135° |
| 2026-05-07 19:33 | 46.23178 | 6.10709 | 1401 ft | 2 kts | 139° |
| 2026-05-07 19:33 | 46.23187 | 6.10690 | 1401 ft | 2 kts | 75° |
| 2026-05-07 19:33 | 46.23180 | 6.10671 | 1402 ft | 2 kts | 37° |
| 2026-05-07 19:34 | 46.23176 | 6.10667 | 1401 ft | 0 kts | 44° |
| 2026-05-07 19:38 | 46.23177 | 6.10667 | 1402 ft | 1 kts | 33° |
| 2026-05-07 19:38 | 46.23207 | 6.10632 | 1393 ft | 9 kts | 312° |
| 2026-05-07 19:38 | 46.23249 | 6.10571 | 1395 ft | 8 kts | 315° |
| 2026-05-07 19:38 | 46.23255 | 6.10562 | 1401 ft | 0 kts | 315° |
| 2026-05-07 19:39 | 46.23275 | 6.10533 | 1393 ft | 8 kts | 315° |
| 2026-05-07 19:39 | 46.23281 | 6.10470 | 1392 ft | 7 kts | 237° |
| 2026-05-07 19:39 | 46.23227 | 6.10390 | 1399 ft | 15 kts | 225° |
| 2026-05-07 19:39 | 46.23160 | 6.10288 | 1393 ft | 13 kts | 227° |
| 2026-05-07 19:40 | 46.23097 | 6.10188 | 1402 ft | 15 kts | 225° |
| 2026-05-07 19:40 | 46.23028 | 6.10086 | 1395 ft | 14 kts | 225° |
| 2026-05-07 19:40 | 46.22966 | 6.09995 | 1399 ft | 12 kts | 225° |
| 2026-05-07 19:40 | 46.22902 | 6.09903 | 1399 ft | 14 kts | 225° |
| 2026-05-07 19:41 | 46.22833 | 6.09801 | 1395 ft | 15 kts | 226° |
| 2026-05-07 19:41 | 46.22755 | 6.09686 | 1395 ft | 16 kts | 225° |
| 2026-05-07 19:41 | 46.22679 | 6.09574 | 1400 ft | 16 kts | 226° |
| 2026-05-07 19:41 | 46.22589 | 6.09441 | 1396 ft | 20 kts | 230° |
| 2026-05-07 19:42 | 46.22550 | 6.09261 | 1408 ft | 18 kts | 270° |
| 2026-05-07 19:42 | 46.22606 | 6.09155 | 1420 ft | 13 kts | 1° |
| 2026-05-07 19:42 | 46.22675 | 6.09234 | 1417 ft | 15 kts | 46° |
| 2026-05-07 19:42 | 46.22835 | 6.09470 | 1417 ft | 66 kts | 45° |
| 2026-05-07 19:43 | 46.23328 | 6.10193 | 1403 ft | 133 kts | 45° |
| 2026-05-07 19:43 | 46.24098 | 6.11319 | 1561 ft | 168 kts | 45° |
| 2026-05-07 19:43 | 46.24913 | 6.12523 | 2265 ft | 168 kts | 45° |
| 2026-05-07 19:43 | 46.25742 | 6.13748 | 2934 ft | 178 kts | 45° |
| 2026-05-07 19:44 | 46.26658 | 6.15098 | 3376 ft | 197 kts | 46° |
| 2026-05-07 19:44 | 46.27650 | 6.16576 | 3845 ft | 215 kts | 46° |
| 2026-05-07 19:44 | 46.28758 | 6.18221 | 4290 ft | 241 kts | 46° |
| 2026-05-07 19:44 | 46.29988 | 6.20014 | 4887 ft | 262 kts | 46° |
| 2026-05-07 19:45 | 46.31306 | 6.21904 | 5601 ft | 275 kts | 45° |
| 2026-05-07 19:45 | 46.32679 | 6.23887 | 6624 ft | 279 kts | 46° |
| 2026-05-07 19:45 | 46.34057 | 6.25918 | 7477 ft | 285 kts | 46° |
| 2026-05-07 19:45 | 46.35451 | 6.27999 | 8394 ft | 290 kts | 47° |
| 2026-05-07 19:46 | 46.36660 | 6.30299 | 9295 ft | 294 kts | 62° |
| 2026-05-07 19:46 | 46.37611 | 6.32969 | 10069 ft | 302 kts | 65° |
| 2026-05-07 19:46 | 46.38565 | 6.35803 | 10506 ft | 324 kts | 65° |
| 2026-05-07 19:46 | 46.39568 | 6.38856 | 10802 ft | 348 kts | 65° |
| 2026-05-07 19:47 | 46.40633 | 6.42118 | 11193 ft | 365 kts | 65° |
| 2026-05-07 19:47 | 46.41732 | 6.45478 | 11908 ft | 371 kts | 65° |
| 2026-05-07 19:47 | 46.42848 | 6.48884 | 12685 ft | 376 kts | 64° |
| 2026-05-07 19:47 | 46.43980 | 6.52328 | 13467 ft | 380 kts | 64° |
| 2026-05-07 19:48 | 46.45124 | 6.55803 | 14188 ft | 384 kts | 64° |
| 2026-05-07 19:48 | 46.46280 | 6.59312 | 14789 ft | 388 kts | 64° |
| 2026-05-07 19:48 | 46.47451 | 6.62863 | 14976 ft | 390 kts | 64° |
| 2026-05-07 19:48 | 46.48616 | 6.66413 | 15030 ft | 390 kts | 64° |
| 2026-05-07 19:49 | 46.49762 | 6.69916 | 15027 ft | 389 kts | 64° |
| 2026-05-07 19:49 | 46.50928 | 6.73480 | 15208 ft | 393 kts | 64° |
| 2026-05-07 19:49 | 46.52104 | 6.77080 | 15952 ft | 395 kts | 64° |
| 2026-05-07 19:49 | 46.53288 | 6.80705 | 16643 ft | 399 kts | 64° |
| 2026-05-07 19:50 | 46.54483 | 6.84364 | 17306 ft | 403 kts | 64° |
| 2026-05-07 19:50 | 46.55771 | 6.88019 | 17968 ft | 407 kts | 57° |
| 2026-05-07 19:50 | 46.57428 | 6.91362 | 18578 ft | 409 kts | 49° |
| 2026-05-07 19:50 | 46.59234 | 6.94586 | 19165 ft | 413 kts | 49° |
| 2026-05-07 19:51 | 46.61053 | 6.97844 | 19767 ft | 416 kts | 49° |
| 2026-05-07 19:51 | 46.62864 | 7.01097 | 20339 ft | 420 kts | 49° |
| 2026-05-07 19:51 | 46.64706 | 7.04418 | 20896 ft | 423 kts | 49° |
| 2026-05-07 19:51 | 46.66561 | 7.07775 | 21438 ft | 426 kts | 50° |
| 2026-05-07 19:52 | 46.68424 | 7.11157 | 21972 ft | 430 kts | 50° |
| 2026-05-07 19:52 | 46.70301 | 7.14566 | 22492 ft | 433 kts | 50° |
| 2026-05-07 19:52 | 46.72193 | 7.18000 | 23016 ft | 436 kts | 50° |
| 2026-05-07 19:52 | 46.74102 | 7.21458 | 23523 ft | 439 kts | 50° |
| 2026-05-07 19:53 | 46.76026 | 7.24942 | 23951 ft | 442 kts | 50° |
| 2026-05-07 19:53 | 46.77959 | 7.28445 | 24349 ft | 445 kts | 50° |
| 2026-05-07 19:53 | 46.79905 | 7.31978 | 24727 ft | 448 kts | 50° |
| 2026-05-07 19:53 | 46.81857 | 7.35539 | 25090 ft | 451 kts | 50° |
| 2026-05-07 19:54 | 46.83822 | 7.39137 | 25440 ft | 454 kts | 50° |
| 2026-05-07 19:54 | 46.85799 | 7.42762 | 25796 ft | 457 kts | 50° |
| 2026-05-07 19:54 | 46.87790 | 7.46417 | 26145 ft | 460 kts | 50° |
| 2026-05-07 19:54 | 46.89790 | 7.50085 | 26508 ft | 463 kts | 50° |
| 2026-05-07 19:55 | 46.91805 | 7.53790 | 26844 ft | 466 kts | 50° |
| 2026-05-07 19:55 | 46.93826 | 7.57517 | 27192 ft | 469 kts | 50° |
| 2026-05-07 19:55 | 46.95859 | 7.61267 | 27537 ft | 471 kts | 50° |
| 2026-05-07 19:55 | 46.97900 | 7.65037 | 27858 ft | 474 kts | 50° |
| 2026-05-07 19:56 | 46.99950 | 7.68828 | 28168 ft | 476 kts | 50° |
| 2026-05-07 19:56 | 47.01987 | 7.72601 | 28458 ft | 479 kts | 50° |
| 2026-05-07 19:56 | 47.04084 | 7.76487 | 28747 ft | 481 kts | 50° |
| 2026-05-07 19:56 | 47.06137 | 7.80297 | 29006 ft | 483 kts | 50° |
| 2026-05-07 19:57 | 47.08228 | 7.84185 | 29262 ft | 486 kts | 50° |
| 2026-05-07 19:57 | 47.10322 | 7.88091 | 29505 ft | 488 kts | 50° |
| 2026-05-07 19:57 | 47.12426 | 7.92021 | 29768 ft | 489 kts | 50° |
| 2026-05-07 19:57 | 47.14404 | 7.96088 | 30114 ft | 490 kts | 56° |
| 2026-05-07 19:58 | 47.16213 | 8.00331 | 30388 ft | 490 kts | 56° |
| 2026-05-07 19:58 | 47.18019 | 8.04575 | 30658 ft | 489 kts | 56° |
| 2026-05-07 19:58 | 47.19825 | 8.08824 | 30927 ft | 489 kts | 56° |
| 2026-05-07 19:58 | 47.21632 | 8.13064 | 31032 ft | 487 kts | 56° |
| 2026-05-07 19:59 | 47.25216 | 8.21485 | 31049 ft | 484 kts | 56° |
| 2026-05-07 19:59 | 47.29043 | 8.29600 | 31049 ft | 480 kts | 45° |
| 2026-05-07 20:00 | 47.34048 | 8.35820 | 31054 ft | 471 kts | 28° |
| 2026-05-07 20:00 | 47.39882 | 8.40123 | 31055 ft | 468 kts | 22° |
| 2026-05-07 20:01 | 47.44763 | 8.43565 | 31056 ft | 467 kts | 22° |
| 2026-05-07 20:01 | 47.50629 | 8.47739 | 31075 ft | 467 kts | 22° |
| 2026-05-07 20:02 | 47.56488 | 8.51925 | 31073 ft | 466 kts | 22° |
| 2026-05-07 20:02 | 47.62337 | 8.56095 | 31068 ft | 466 kts | 22° |
| 2026-05-07 20:03 | 47.68143 | 8.60232 | 31060 ft | 465 kts | 22° |
| 2026-05-07 20:03 | 47.73976 | 8.64405 | 31079 ft | 465 kts | 22° |
| 2026-05-07 20:04 | 47.79793 | 8.68590 | 31078 ft | 464 kts | 23° |
| 2026-05-07 20:04 | 47.85613 | 8.72786 | 31075 ft | 464 kts | 23° |
| 2026-05-07 20:05 | 47.91411 | 8.76976 | 31082 ft | 463 kts | 23° |
| 2026-05-07 20:05 | 47.97182 | 8.81152 | 31082 ft | 463 kts | 23° |
| 2026-05-07 20:06 | 48.02978 | 8.85350 | 31073 ft | 462 kts | 23° |
| 2026-05-07 20:06 | 48.08763 | 8.89559 | 31072 ft | 462 kts | 23° |
| 2026-05-07 20:07 | 48.14561 | 8.93704 | 31092 ft | 460 kts | 19° |
| 2026-05-07 20:07 | 48.20698 | 8.95965 | 31090 ft | 452 kts | 2° |
| 2026-05-07 20:08 | 48.26955 | 8.96882 | 31081 ft | 451 kts | 2° |
| 2026-05-07 20:08 | 48.33209 | 8.97822 | 31084 ft | 451 kts | 3° |
| 2026-05-07 20:09 | 48.39418 | 8.98775 | 31081 ft | 451 kts | 3° |
| 2026-05-07 20:10 | 48.48776 | 9.00202 | 31079 ft | 450 kts | 3° |
| 2026-05-07 20:10 | 48.51891 | 9.00348 | 31081 ft | 446 kts | 351° |
| 2026-05-07 20:10 | 48.54923 | 8.99483 | 31079 ft | 442 kts | 344° |
| 2026-05-07 20:11 | 48.60916 | 8.97347 | 31074 ft | 442 kts | 343° |
| 2026-05-07 20:11 | 48.66899 | 8.95187 | 31072 ft | 442 kts | 343° |
| 2026-05-07 20:12 | 48.72887 | 8.93015 | 30533 ft | 440 kts | 343° |
| 2026-05-07 20:12 | 48.75851 | 8.91937 | 29737 ft | 436 kts | 344° |
| 2026-05-07 20:12 | 48.78772 | 8.90875 | 28681 ft | 437 kts | 344° |
| 2026-05-07 20:12 | 48.81724 | 8.89804 | 27832 ft | 434 kts | 344° |
| 2026-05-07 20:13 | 48.84636 | 8.88752 | 27365 ft | 424 kts | 344° |
| 2026-05-07 20:13 | 48.87481 | 8.87723 | 26792 ft | 417 kts | 344° |
| 2026-05-07 20:13 | 48.90292 | 8.86697 | 26165 ft | 413 kts | 344° |
| 2026-05-07 20:13 | 48.93076 | 8.85676 | 25536 ft | 409 kts | 344° |
| 2026-05-07 20:14 | 48.95837 | 8.84666 | 24922 ft | 406 kts | 344° |
| 2026-05-07 20:14 | 48.98573 | 8.83665 | 24322 ft | 403 kts | 344° |
| 2026-05-07 20:14 | 49.01290 | 8.82671 | 23738 ft | 400 kts | 344° |
| 2026-05-07 20:14 | 49.03954 | 8.81697 | 23105 ft | 398 kts | 345° |
| 2026-05-07 20:15 | 49.06638 | 8.80713 | 22461 ft | 395 kts | 344° |
| 2026-05-07 20:15 | 49.09301 | 8.79734 | 21878 ft | 392 kts | 344° |
| 2026-05-07 20:15 | 49.11951 | 8.78758 | 21318 ft | 389 kts | 344° |
| 2026-05-07 20:15 | 49.14580 | 8.77789 | 20769 ft | 387 kts | 344° |
| 2026-05-07 20:16 | 49.17186 | 8.76826 | 20232 ft | 384 kts | 344° |
| 2026-05-07 20:16 | 49.19773 | 8.75871 | 19723 ft | 381 kts | 344° |
| 2026-05-07 20:16 | 49.22347 | 8.74923 | 19220 ft | 378 kts | 344° |
| 2026-05-07 20:16 | 49.24898 | 8.73982 | 18718 ft | 376 kts | 344° |
| 2026-05-07 20:17 | 49.27436 | 8.73047 | 18193 ft | 373 kts | 344° |
| 2026-05-07 20:17 | 49.29941 | 8.72080 | 17628 ft | 370 kts | 340° |
| 2026-05-07 20:17 | 49.32210 | 8.70327 | 17105 ft | 363 kts | 325° |
| 2026-05-07 20:17 | 49.34278 | 8.68195 | 16569 ft | 361 kts | 324° |
| 2026-05-07 20:18 | 49.36343 | 8.66017 | 16038 ft | 359 kts | 324° |
| 2026-05-07 20:18 | 49.38395 | 8.63842 | 15526 ft | 357 kts | 324° |
| 2026-05-07 20:18 | 49.40433 | 8.61671 | 15017 ft | 355 kts | 324° |
| 2026-05-07 20:18 | 49.42450 | 8.59514 | 14609 ft | 350 kts | 324° |
| 2026-05-07 20:19 | 49.44410 | 8.57413 | 14493 ft | 337 kts | 324° |
| 2026-05-07 20:19 | 49.46304 | 8.55391 | 14364 ft | 325 kts | 324° |
| 2026-05-07 20:19 | 49.48132 | 8.53440 | 14246 ft | 314 kts | 324° |
| 2026-05-07 20:19 | 49.49899 | 8.51555 | 14076 ft | 306 kts | 324° |
| 2026-05-07 20:20 | 49.51638 | 8.49699 | 13768 ft | 303 kts | 324° |
| 2026-05-07 20:20 | 49.53364 | 8.47856 | 13398 ft | 301 kts | 324° |
| 2026-05-07 20:20 | 49.55081 | 8.46022 | 13031 ft | 299 kts | 324° |
| 2026-05-07 20:20 | 49.56788 | 8.44198 | 12657 ft | 298 kts | 324° |
| 2026-05-07 20:21 | 49.58493 | 8.42382 | 12280 ft | 296 kts | 324° |
| 2026-05-07 20:21 | 49.60182 | 8.40587 | 11935 ft | 294 kts | 324° |
| 2026-05-07 20:21 | 49.61834 | 8.38835 | 11589 ft | 292 kts | 324° |
| 2026-05-07 20:21 | 49.63499 | 8.37055 | 11221 ft | 290 kts | 324° |
| 2026-05-07 20:22 | 49.65158 | 8.35293 | 10854 ft | 288 kts | 324° |
| 2026-05-07 20:22 | 49.66810 | 8.33553 | 10523 ft | 286 kts | 324° |
| 2026-05-07 20:22 | 49.68453 | 8.31826 | 10169 ft | 285 kts | 324° |
| 2026-05-07 20:22 | 49.70070 | 8.30055 | 9740 ft | 285 kts | 323° |
| 2026-05-07 20:23 | 49.71661 | 8.28231 | 9327 ft | 283 kts | 322° |
| 2026-05-07 20:23 | 49.73243 | 8.26466 | 9038 ft | 278 kts | 323° |
| 2026-05-07 20:23 | 49.74808 | 8.24778 | 8802 ft | 270 kts | 324° |
| 2026-05-07 20:23 | 49.76329 | 8.23136 | 8581 ft | 263 kts | 323° |
| 2026-05-07 20:24 | 49.77798 | 8.21530 | 8384 ft | 254 kts | 323° |
| 2026-05-07 20:24 | 49.79216 | 8.19974 | 8194 ft | 246 kts | 323° |
| 2026-05-07 20:24 | 49.80591 | 8.18461 | 7976 ft | 239 kts | 323° |
| 2026-05-07 20:24 | 49.81952 | 8.16970 | 7591 ft | 240 kts | 324° |
| 2026-05-07 20:25 | 49.83323 | 8.15486 | 7266 ft | 239 kts | 324° |
| 2026-05-07 20:25 | 49.84653 | 8.14026 | 7095 ft | 229 kts | 323° |
| 2026-05-07 20:25 | 49.85909 | 8.12627 | 6910 ft | 220 kts | 323° |
| 2026-05-07 20:25 | 49.87123 | 8.11268 | 6722 ft | 211 kts | 323° |
| 2026-05-07 20:26 | 49.88269 | 8.09986 | 6697 ft | 192 kts | 324° |
| 2026-05-07 20:26 | 49.89440 | 8.09149 | 6514 ft | 184 kts | 348° |
| 2026-05-07 20:26 | 49.90678 | 8.08941 | 6356 ft | 174 kts | 354° |
| 2026-05-07 20:26 | 49.91865 | 8.08808 | 6173 ft | 168 kts | 359° |
| 2026-05-07 20:27 | 49.92972 | 8.09184 | 6038 ft | 160 kts | 24° |
| 2026-05-07 20:27 | 49.93848 | 8.10171 | 5923 ft | 155 kts | 45° |
| 2026-05-07 20:27 | 49.94456 | 8.11547 | 5790 ft | 155 kts | 64° |
| 2026-05-07 20:27 | 49.94851 | 8.13136 | 5601 ft | 160 kts | 68° |
| 2026-05-07 20:28 | 49.95244 | 8.14732 | 5380 ft | 157 kts | 68° |
| 2026-05-07 20:28 | 49.95627 | 8.16308 | 5150 ft | 155 kts | 68° |
| 2026-05-07 20:28 | 49.96011 | 8.17857 | 4935 ft | 152 kts | 67° |
| 2026-05-07 20:28 | 49.96385 | 8.19386 | 4704 ft | 150 kts | 68° |
| 2026-05-07 20:29 | 49.96748 | 8.20903 | 4472 ft | 149 kts | 68° |
| 2026-05-07 20:29 | 49.97115 | 8.22399 | 4253 ft | 148 kts | 67° |
| 2026-05-07 20:29 | 49.97473 | 8.23884 | 4033 ft | 146 kts | 68° |
| 2026-05-07 20:29 | 49.97816 | 8.25340 | 3819 ft | 144 kts | 68° |
| 2026-05-07 20:30 | 49.98179 | 8.26811 | 3601 ft | 142 kts | 67° |
| 2026-05-07 20:30 | 49.98527 | 8.28216 | 3391 ft | 142 kts | 68° |
| 2026-05-07 20:30 | 49.98876 | 8.29671 | 3214 ft | 144 kts | 68° |
| 2026-05-07 20:30 | 49.99231 | 8.31135 | 3032 ft | 145 kts | 68° |
| 2026-05-07 20:31 | 49.99587 | 8.32610 | 2827 ft | 146 kts | 68° |
| 2026-05-07 20:31 | 49.99945 | 8.34086 | 2623 ft | 146 kts | 68° |
| 2026-05-07 20:31 | 50.00304 | 8.35569 | 2406 ft | 147 kts | 68° |
| 2026-05-07 20:31 | 50.00668 | 8.37064 | 2176 ft | 147 kts | 68° |
| 2026-05-07 20:32 | 50.01017 | 8.38533 | 1923 ft | 143 kts | 69° |
| 2026-05-07 20:32 | 50.01361 | 8.39957 | 1712 ft | 138 kts | 68° |
| 2026-05-07 20:32 | 50.01696 | 8.41344 | 1493 ft | 136 kts | 69° |
| 2026-05-07 20:32 | 50.02026 | 8.42721 | 1309 ft | 136 kts | 69° |
| 2026-05-07 20:33 | 50.02359 | 8.44099 | 1120 ft | 136 kts | 69° |
| 2026-05-07 20:33 | 50.02691 | 8.45481 | 953 ft | 137 kts | 69° |
| 2026-05-07 20:33 | 50.03026 | 8.46874 | 766 ft | 138 kts | 69° |
| 2026-05-07 20:33 | 50.03360 | 8.48265 | 575 ft | 137 kts | 69° |
| 2026-05-07 20:34 | 50.03689 | 8.49645 | 381 ft | 135 kts | 69° |
| 2026-05-07 20:34 | 50.03992 | 8.50909 | 347 ft | 109 kts | 70° |
| 2026-05-07 20:34 | 50.04198 | 8.51766 | 353 ft | 60 kts | 69° |
| 2026-05-07 20:34 | 50.04321 | 8.52278 | 354 ft | 46 kts | 69° |
| 2026-05-07 20:35 | 50.04389 | 8.52595 | 349 ft | 22 kts | 82° |
| 2026-05-07 20:35 | 50.04389 | 8.52834 | 347 ft | 23 kts | 96° |
| 2026-05-07 20:35 | 50.04367 | 8.53050 | 350 ft | 16 kts | 99° |
| 2026-05-07 20:35 | 50.04351 | 8.53205 | 346 ft | 9 kts | 99° |
| 2026-05-07 20:36 | 50.04352 | 8.53306 | 346 ft | 10 kts | 76° |
| 2026-05-07 20:36 | 50.04389 | 8.53458 | 350 ft | 21 kts | 70° |
| 2026-05-07 20:36 | 50.04410 | 8.53729 | 348 ft | 29 kts | 84° |
| 2026-05-07 20:36 | 50.04431 | 8.54047 | 352 ft | 30 kts | 84° |
| 2026-05-07 20:37 | 50.04451 | 8.54375 | 348 ft | 31 kts | 85° |
| 2026-05-07 20:37 | 50.04401 | 8.54656 | 348 ft | 27 kts | 128° |
| 2026-05-07 20:37 | 50.04236 | 8.54815 | 352 ft | 29 kts | 159° |
| 2026-05-07 20:37 | 50.04103 | 8.54891 | 346 ft | 11 kts | 160° |
| 2026-05-07 20:38 | 50.04038 | 8.54932 | 350 ft | 10 kts | 149° |
| 2026-05-07 20:38 | 50.04017 | 8.55015 | 349 ft | 9 kts | 77° |
| 2026-05-07 20:38 | 50.04043 | 8.55121 | 348 ft | 14 kts | 69° |
| 2026-05-07 20:38 | 50.04087 | 8.55300 | 354 ft | 21 kts | 70° |
| 2026-05-07 20:39 | 50.04141 | 8.55529 | 353 ft | 23 kts | 69° |
| 2026-05-07 20:39 | 50.04196 | 8.55755 | 347 ft | 10 kts | 70° |
| 2026-05-07 20:39 | 50.04206 | 8.55797 | 350 ft | 0 kts | 70° |
| 2026-05-07 20:41 | 50.04225 | 8.55880 | 349 ft | 14 kts | 70° |
| 2026-05-07 20:42 | 50.04255 | 8.56004 | 353 ft | 10 kts | 70° |
| 2026-05-07 20:42 | 50.04305 | 8.56073 | 351 ft | 11 kts | 4° |
| 2026-05-07 20:42 | 50.04379 | 8.56037 | 346 ft | 11 kts | 341° |
| 2026-05-07 20:42 | 50.04440 | 8.56071 | 351 ft | 10 kts | 60° |
| 2026-05-07 20:43 | 50.04469 | 8.56189 | 346 ft | 13 kts | 69° |
| 2026-05-07 20:43 | 50.04504 | 8.56336 | 351 ft | 16 kts | 70° |
| 2026-05-07 20:43 | 50.04565 | 8.56449 | 351 ft | 13 kts | 26° |
| 2026-05-07 20:43 | 50.04634 | 8.56502 | 348 ft | 8 kts | 25° |
| 2026-05-07 20:44 | 50.04659 | 8.56520 | 350 ft | 2 kts | 25° |
| 2026-05-07 20:44 | 50.04667 | 8.56531 | 347 ft | 1 kts | 53° |
| 2026-05-07 20:44 | 50.04659 | 8.56588 | 351 ft | 6 kts | 112° |
| 2026-05-07 20:44 | 50.04642 | 8.56646 | 350 ft | 6 kts | 114° |
| 2026-05-07 20:45 | 50.04638 | 8.56662 | 347 ft | 0 kts | 114° |